Aeroporto :
LOGIN :

Iscrizione | Disclaimer

   EN    FR    IT 

 










Sommario :    VFR   VFR Marginale   IFR   IFR Intensivo   IFR Molto Intensivo
Visibilità : 
Base nubi : 
>= 8 km
>= 3000ft
5 / 8 km
1000 / 3000 ft
1500m / 5 km
500 / 1000 ft
800 / 1500m
200 / 500 ft
< 800m
< 200 ft
Simboli :   Temporali  Nebbia  Neve Forte  Precipitazioni Forti  Vento > 20 kt
SIGMETs :   Varie  Temporali  Ghiacco  Turbolenza  Onda orograficha  Ceneri Vulcaniche






- Altitudine del aeroporto : 52 ft
- Codice IATA : IOM


EGNS - Isle of Man

ULTIMO METAR :
  • 221450Z 11016KT 9999 FEW014 08/06 Q0992 NOSIG

METARs OBSOLETI :
  • 221420Z 11017KT 9999 FEW014 SCT025 09/06 Q0992 NOSIG
  • 221350Z 11017KT 9999 FEW014 BKN020 09/06 Q0992 NOSIG
  • 221320Z 11018KT 9999 FEW014 BKN022 08/06 Q0992 NOSIG
  • 221250Z 11015KT 9999 FEW014 BKN020 08/06 Q0992 NOSIG

TAF TAF EGNS
Valido dal 22 a 15 ore il 22 a 22 ore UTC


221400Z 2215/2222 10018KT 9999 SCT015 BKN020
TEMPO 2215/2222 9000 -RA BKN015
PROB30
TEMPO 2215/2222 4000 RA BKN008



MetMap, La meteo Aeronautica in un colpo d'occhio ! - Copyright ORBIFLY Dicembre 2007 - Disclaimer

ORBIFLY MET'MAP TEAM :

Programmazione e sviluppo : Alexandra Zaïnal
Concezione e sviluppo : Baudouin d'Aumeries
Co-Programmazione e sviluppo : Marc-Olivier Méhu
Supporto tecnico e logistico : Manuel Goepfert
Aiuto per la traduzione : Arnaldo La Scala

Contatto : metmap@orbifly.com




FONTI E CREDITI :

   NOAA